sensor_id;sensor_type;location;lat;lon;timestamp;temperature;humidity
49253;DHT22;35103;47.952;-1.502;2022-12-18T00:01:18;-3275.20;81.10
49253;DHT22;35103;47.952;-1.502;2022-12-18T00:03:45;-3275.20;81.30
49253;DHT22;35103;47.952;-1.502;2022-12-18T00:06:11;-3275.20;81.30
49253;DHT22;35103;47.952;-1.502;2022-12-18T00:08:37;-3275.20;81.20
49253;DHT22;35103;47.952;-1.502;2022-12-18T00:11:05;-3275.20;81.30
49253;DHT22;35103;47.952;-1.502;2022-12-18T00:13:31;-3275.20;81.20
49253;DHT22;35103;47.952;-1.502;2022-12-18T00:16:05;-3275.20;81.30
49253;DHT22;35103;47.952;-1.502;2022-12-18T00:18:31;-3275.20;81.50
49253;DHT22;35103;47.952;-1.502;2022-12-18T00:21:02;-3275.20;81.30
49253;DHT22;35103;47.952;-1.502;2022-12-18T00:23:29;-3275.20;81.50
49253;DHT22;35103;47.952;-1.502;2022-12-18T00:25:54;-3275.20;81.50
49253;DHT22;35103;47.952;-1.502;2022-12-18T00:28:20;-3275.20;81.40
49253;DHT22;35103;47.952;-1.502;2022-12-18T00:30:46;-3275.20;81.40
49253;DHT22;35103;47.952;-1.502;2022-12-18T00:33:11;-3275.20;81.40
49253;DHT22;35103;47.952;-1.502;2022-12-18T00:35:37;-3275.20;81.50
49253;DHT22;35103;47.952;-1.502;2022-12-18T00:38:02;-3275.20;81.50
49253;DHT22;35103;47.952;-1.502;2022-12-18T00:40:28;-3275.20;81.60
49253;DHT22;35103;47.952;-1.502;2022-12-18T00:42:54;-3275.20;81.50
49253;DHT22;35103;47.952;-1.502;2022-12-18T00:45:19;-3275.20;81.50
49253;DHT22;35103;47.952;-1.502;2022-12-18T00:47:45;-3275.20;81.50
49253;DHT22;35103;47.952;-1.502;2022-12-18T00:50:10;-3275.20;81.50
49253;DHT22;35103;47.952;-1.502;2022-12-18T00:52:36;-3275.30;81.40
49253;DHT22;35103;47.952;-1.502;2022-12-18T00:55:01;-3275.30;81.20
49253;DHT22;35103;47.952;-1.502;2022-12-18T00:57:27;-3275.40;81.10
49253;DHT22;35103;47.952;-1.502;2022-12-18T00:59:52;-3275.40;81.00
49253;DHT22;35103;47.952;-1.502;2022-12-18T01:02:18;-3275.40;80.90
49253;DHT22;35103;47.952;-1.502;2022-12-18T01:04:43;-3275.50;80.80
49253;DHT22;35103;47.952;-1.502;2022-12-18T01:07:09;-3275.50;80.70
49253;DHT22;35103;47.952;-1.502;2022-12-18T01:09:35;-3275.50;80.80
49253;DHT22;35103;47.952;-1.502;2022-12-18T01:12:00;-3275.50;80.70
49253;DHT22;35103;47.952;-1.502;2022-12-18T01:14:26;-3275.50;80.80
49253;DHT22;35103;47.952;-1.502;2022-12-18T01:16:51;-3275.50;80.80
49253;DHT22;35103;47.952;-1.502;2022-12-18T01:19:17;-3275.50;80.80
49253;DHT22;35103;47.952;-1.502;2022-12-18T01:21:42;-3275.50;80.80
49253;DHT22;35103;47.952;-1.502;2022-12-18T01:24:11;-3275.50;80.90
49253;DHT22;35103;47.952;-1.502;2022-12-18T01:26:37;-3275.40;81.10
49253;DHT22;35103;47.952;-1.502;2022-12-18T01:29:03;-3275.40;81.10
49253;DHT22;35103;47.952;-1.502;2022-12-18T01:31:31;-3275.40;81.10
49253;DHT22;35103;47.952;-1.502;2022-12-18T01:33:57;-3275.40;81.20
49253;DHT22;35103;47.952;-1.502;2022-12-18T01:36:28;-3275.40;81.20
49253;DHT22;35103;47.952;-1.502;2022-12-18T01:38:55;-3275.40;81.10
49253;DHT22;35103;47.952;-1.502;2022-12-18T01:41:23;-3275.40;81.10
49253;DHT22;35103;47.952;-1.502;2022-12-18T01:43:55;-3275.40;81.10
49253;DHT22;35103;47.952;-1.502;2022-12-18T01:46:24;-3275.40;81.00
49253;DHT22;35103;47.952;-1.502;2022-12-18T01:48:56;-3275.50;81.00
49253;DHT22;35103;47.952;-1.502;2022-12-18T01:51:23;-3275.50;80.90
49253;DHT22;35103;47.952;-1.502;2022-12-18T01:53:49;-3275.50;80.70
49253;DHT22;35103;47.952;-1.502;2022-12-18T01:56:17;-3275.50;80.70
49253;DHT22;35103;47.952;-1.502;2022-12-18T01:59:04;-3275.50;80.80
49253;DHT22;35103;47.952;-1.502;2022-12-18T02:01:31;-3275.50;80.70
49253;DHT22;35103;47.952;-1.502;2022-12-18T02:04:21;-3275.60;80.60
49253;DHT22;35103;47.952;-1.502;2022-12-18T02:07:32;-3275.50;80.60
49253;DHT22;35103;47.952;-1.502;2022-12-18T02:09:47;-3275.50;80.50
49253;DHT22;35103;47.952;-1.502;2022-12-18T02:12:20;-3275.50;80.70
49253;DHT22;35103;47.952;-1.502;2022-12-18T02:14:54;-3275.50;80.70
49253;DHT22;35103;47.952;-1.502;2022-12-18T02:17:22;-3275.50;80.70
49253;DHT22;35103;47.952;-1.502;2022-12-18T02:27:56;-3275.40;80.80
49253;DHT22;35103;47.952;-1.502;2022-12-18T02:30:25;-3275.50;80.80
49253;DHT22;35103;47.952;-1.502;2022-12-18T02:32:52;-3275.50;80.90
49253;DHT22;35103;47.952;-1.502;2022-12-18T02:35:27;-3275.50;80.80
49253;DHT22;35103;47.952;-1.502;2022-12-18T02:37:54;-3275.50;80.80
49253;DHT22;35103;47.952;-1.502;2022-12-18T02:40:22;-3275.50;80.70
49253;DHT22;35103;47.952;-1.502;2022-12-18T02:42:48;-3275.50;80.80
49253;DHT22;35103;47.952;-1.502;2022-12-18T02:45:14;-3275.50;80.80
49253;DHT22;35103;47.952;-1.502;2022-12-18T02:47:42;-3275.50;80.70
49253;DHT22;35103;47.952;-1.502;2022-12-18T02:50:31;-3275.50;80.80
49253;DHT22;35103;47.952;-1.502;2022-12-18T02:53:45;-3275.40;80.80
49253;DHT22;35103;47.952;-1.502;2022-12-18T02:55:54;-3275.50;80.90
49253;DHT22;35103;47.952;-1.502;2022-12-18T03:01:30;-3275.50;80.80
49253;DHT22;35103;47.952;-1.502;2022-12-18T03:04:07;-3275.50;80.80
49253;DHT22;35103;47.952;-1.502;2022-12-18T03:06:41;-3275.50;80.80
49253;DHT22;35103;47.952;-1.502;2022-12-18T03:09:53;-3275.50;80.90
49253;DHT22;35103;47.952;-1.502;2022-12-18T03:12:23;-3275.50;80.90
49253;DHT22;35103;47.952;-1.502;2022-12-18T03:17:27;-3275.50;80.90
49253;DHT22;35103;47.952;-1.502;2022-12-18T03:19:55;-3275.50;81.00
49253;DHT22;35103;47.952;-1.502;2022-12-18T03:22:23;-3275.50;81.00
49253;DHT22;35103;47.952;-1.502;2022-12-18T03:24:54;-3275.50;81.10
49253;DHT22;35103;47.952;-1.502;2022-12-18T03:27:23;-3275.50;81.20
49253;DHT22;35103;47.952;-1.502;2022-12-18T03:29:56;-3275.50;81.30
49253;DHT22;35103;47.952;-1.502;2022-12-18T03:32:29;-3275.50;81.30
49253;DHT22;35103;47.952;-1.502;2022-12-18T03:34:59;-3275.60;81.30
49253;DHT22;35103;47.952;-1.502;2022-12-18T03:37:25;-3275.60;81.40
49253;DHT22;35103;47.952;-1.502;2022-12-18T03:39:51;-3275.60;81.30
49253;DHT22;35103;47.952;-1.502;2022-12-18T03:42:33;-3275.70;81.20
49253;DHT22;35103;47.952;-1.502;2022-12-18T03:50:45;-3275.80;81.20
49253;DHT22;35103;47.952;-1.502;2022-12-18T03:55:49;-3275.80;81.20
49253;DHT22;35103;47.952;-1.502;2022-12-18T03:58:18;-3275.80;81.20
49253;DHT22;35103;47.952;-1.502;2022-12-18T04:00:45;-3275.80;81.20
49253;DHT22;35103;47.952;-1.502;2022-12-18T04:03:11;-3275.90;81.20
49253;DHT22;35103;47.952;-1.502;2022-12-18T04:05:38;-3275.90;81.10
49253;DHT22;35103;47.952;-1.502;2022-12-18T04:08:06;-3275.90;81.00
49253;DHT22;35103;47.952;-1.502;2022-12-18T04:10:31;-3276.00;81.00
49253;DHT22;35103;47.952;-1.502;2022-12-18T04:12:57;-3276.10;80.90
49253;DHT22;35103;47.952;-1.502;2022-12-18T04:15:23;-3276.10;80.80
49253;DHT22;35103;47.952;-1.502;2022-12-18T04:17:50;-3276.10;80.90
49253;DHT22;35103;47.952;-1.502;2022-12-18T04:20:16;-3276.00;80.90
49253;DHT22;35103;47.952;-1.502;2022-12-18T04:22:42;-3276.10;80.90
49253;DHT22;35103;47.952;-1.502;2022-12-18T04:25:12;-3276.10;80.90
49253;DHT22;35103;47.952;-1.502;2022-12-18T04:27:38;-3276.10;80.80
49253;DHT22;35103;47.952;-1.502;2022-12-18T04:30:04;-3276.10;80.80
49253;DHT22;35103;47.952;-1.502;2022-12-18T04:32:29;-3276.10;80.80
49253;DHT22;35103;47.952;-1.502;2022-12-18T04:34:55;-3276.10;80.90
49253;DHT22;35103;47.952;-1.502;2022-12-18T04:37:21;-3276.10;81.00
49253;DHT22;35103;47.952;-1.502;2022-12-18T04:39:46;-3276.10;81.00
49253;DHT22;35103;47.952;-1.502;2022-12-18T04:42:12;-3276.20;81.00
49253;DHT22;35103;47.952;-1.502;2022-12-18T04:44:37;-3276.20;81.00
49253;DHT22;35103;47.952;-1.502;2022-12-18T04:47:03;-3276.20;80.90
49253;DHT22;35103;47.952;-1.502;2022-12-18T04:49:29;-3276.20;81.00
49253;DHT22;35103;47.952;-1.502;2022-12-18T04:51:54;-3276.20;81.10
49253;DHT22;35103;47.952;-1.502;2022-12-18T04:54:20;-3276.20;81.00
49253;DHT22;35103;47.952;-1.502;2022-12-18T04:56:45;-3276.20;81.10
49253;DHT22;35103;47.952;-1.502;2022-12-18T04:59:11;-3276.30;81.10
49253;DHT22;35103;47.952;-1.502;2022-12-18T05:01:36;-3276.20;81.00
49253;DHT22;35103;47.952;-1.502;2022-12-18T05:04:02;-3276.30;81.00
49253;DHT22;35103;47.952;-1.502;2022-12-18T05:06:28;-3276.30;81.00
49253;DHT22;35103;47.952;-1.502;2022-12-18T05:08:53;-3276.30;80.90
49253;DHT22;35103;47.952;-1.502;2022-12-18T05:11:19;-3276.30;81.00
49253;DHT22;35103;47.952;-1.502;2022-12-18T05:13:45;-3276.30;81.20
49253;DHT22;35103;47.952;-1.502;2022-12-18T05:16:11;-3276.30;81.20
49253;DHT22;35103;47.952;-1.502;2022-12-18T05:18:37;-3276.40;81.10
49253;DHT22;35103;47.952;-1.502;2022-12-18T05:21:03;-3276.40;81.10
49253;DHT22;35103;47.952;-1.502;2022-12-18T05:23:29;-3276.50;81.00
49253;DHT22;35103;47.952;-1.502;2022-12-18T05:25:57;-3276.50;81.00
49253;DHT22;35103;47.952;-1.502;2022-12-18T05:28:25;-3276.50;81.10
49253;DHT22;35103;47.952;-1.502;2022-12-18T05:30:54;-3276.50;81.10
49253;DHT22;35103;47.952;-1.502;2022-12-18T05:33:21;-3276.60;81.00
49253;DHT22;35103;47.952;-1.502;2022-12-18T05:35:54;-3276.60;81.00
49253;DHT22;35103;47.952;-1.502;2022-12-18T05:38:20;-3276.50;81.10
49253;DHT22;35103;47.952;-1.502;2022-12-18T05:40:47;-3276.50;81.10
49253;DHT22;35103;47.952;-1.502;2022-12-18T05:43:13;-3276.50;81.20
49253;DHT22;35103;47.952;-1.502;2022-12-18T05:45:39;-3276.50;81.40
49253;DHT22;35103;47.952;-1.502;2022-12-18T05:48:06;-3276.50;81.60
49253;DHT22;35103;47.952;-1.502;2022-12-18T05:50:34;-3276.50;81.60
49253;DHT22;35103;47.952;-1.502;2022-12-18T05:53:00;-3276.50;81.70
49253;DHT22;35103;47.952;-1.502;2022-12-18T05:55:26;-3276.60;81.70
49253;DHT22;35103;47.952;-1.502;2022-12-18T05:57:51;-3276.60;81.70
49253;DHT22;35103;47.952;-1.502;2022-12-18T06:00:17;-3276.60;81.80
49253;DHT22;35103;47.952;-1.502;2022-12-18T06:02:46;-3276.70;81.80
49253;DHT22;35103;47.952;-1.502;2022-12-18T06:05:12;-3276.70;81.80
49253;DHT22;35103;47.952;-1.502;2022-12-18T06:07:37;-3276.70;81.80
49253;DHT22;35103;47.952;-1.502;2022-12-18T06:10:03;-3276.70;81.70
49253;DHT22;35103;47.952;-1.502;2022-12-18T06:12:29;0.00;81.80
49253;DHT22;35103;47.952;-1.502;2022-12-18T06:14:54;0.00;81.80
49253;DHT22;35103;47.952;-1.502;2022-12-18T06:17:20;0.00;81.80
49253;DHT22;35103;47.952;-1.502;2022-12-18T06:19:45;0.00;82.00
49253;DHT22;35103;47.952;-1.502;2022-12-18T06:22:11;0.00;82.10
49253;DHT22;35103;47.952;-1.502;2022-12-18T06:24:36;0.00;82.20
49253;DHT22;35103;47.952;-1.502;2022-12-18T06:27:02;0.10;82.20
49253;DHT22;35103;47.952;-1.502;2022-12-18T06:29:28;0.20;82.10
49253;DHT22;35103;47.952;-1.502;2022-12-18T06:31:53;0.20;82.20
49253;DHT22;35103;47.952;-1.502;2022-12-18T06:34:19;0.30;82.40
49253;DHT22;35103;47.952;-1.502;2022-12-18T06:36:44;0.30;82.30
49253;DHT22;35103;47.952;-1.502;2022-12-18T06:39:10;0.30;82.40
49253;DHT22;35103;47.952;-1.502;2022-12-18T06:41:35;0.30;82.40
49253;DHT22;35103;47.952;-1.502;2022-12-18T06:44:01;0.40;82.40
49253;DHT22;35103;47.952;-1.502;2022-12-18T06:46:27;0.40;82.60
49253;DHT22;35103;47.952;-1.502;2022-12-18T06:48:52;0.40;82.70
49253;DHT22;35103;47.952;-1.502;2022-12-18T06:51:22;0.50;82.60
49253;DHT22;35103;47.952;-1.502;2022-12-18T06:53:48;0.50;82.80
49253;DHT22;35103;47.952;-1.502;2022-12-18T06:56:14;0.50;82.80
49253;DHT22;35103;47.952;-1.502;2022-12-18T06:58:39;0.50;82.90
49253;DHT22;35103;47.952;-1.502;2022-12-18T07:01:08;0.60;83.00
49253;DHT22;35103;47.952;-1.502;2022-12-18T07:03:34;0.60;83.20
49253;DHT22;35103;47.952;-1.502;2022-12-18T07:05:59;0.60;83.20
49253;DHT22;35103;47.952;-1.502;2022-12-18T07:08:25;0.60;83.10
49253;DHT22;35103;47.952;-1.502;2022-12-18T07:10:51;0.50;83.40
49253;DHT22;35103;47.952;-1.502;2022-12-18T07:13:16;0.50;83.30
49253;DHT22;35103;47.952;-1.502;2022-12-18T07:15:43;0.60;83.30
49253;DHT22;35103;47.952;-1.502;2022-12-18T07:18:09;0.60;83.40
49253;DHT22;35103;47.952;-1.502;2022-12-18T07:20:34;0.60;83.30
49253;DHT22;35103;47.952;-1.502;2022-12-18T07:23:04;0.60;83.50
49253;DHT22;35103;47.952;-1.502;2022-12-18T07:25:33;0.60;83.70
49253;DHT22;35103;47.952;-1.502;2022-12-18T07:27:59;0.60;83.50
49253;DHT22;35103;47.952;-1.502;2022-12-18T07:30:25;0.60;83.80
49253;DHT22;35103;47.952;-1.502;2022-12-18T07:32:50;0.70;83.90
49253;DHT22;35103;47.952;-1.502;2022-12-18T07:35:16;0.70;84.00
49253;DHT22;35103;47.952;-1.502;2022-12-18T07:37:41;0.70;84.10
49253;DHT22;35103;47.952;-1.502;2022-12-18T07:40:07;0.80;84.10
49253;DHT22;35103;47.952;-1.502;2022-12-18T07:42:33;0.80;84.20
49253;DHT22;35103;47.952;-1.502;2022-12-18T07:45:00;0.80;84.00
49253;DHT22;35103;47.952;-1.502;2022-12-18T07:47:26;0.80;84.10
49253;DHT22;35103;47.952;-1.502;2022-12-18T07:49:51;0.90;84.10
49253;DHT22;35103;47.952;-1.502;2022-12-18T07:52:17;0.90;84.20
49253;DHT22;35103;47.952;-1.502;2022-12-18T07:54:42;0.90;84.20
49253;DHT22;35103;47.952;-1.502;2022-12-18T07:57:08;0.90;84.40
49253;DHT22;35103;47.952;-1.502;2022-12-18T07:59:34;0.90;84.60
49253;DHT22;35103;47.952;-1.502;2022-12-18T08:02:00;0.90;84.70
49253;DHT22;35103;47.952;-1.502;2022-12-18T08:04:25;0.90;84.80
49253;DHT22;35103;47.952;-1.502;2022-12-18T08:06:51;0.90;85.00
49253;DHT22;35103;47.952;-1.502;2022-12-18T08:09:17;1.00;85.10
49253;DHT22;35103;47.952;-1.502;2022-12-18T08:11:42;1.00;85.20
49253;DHT22;35103;47.952;-1.502;2022-12-18T08:14:08;1.00;85.30
49253;DHT22;35103;47.952;-1.502;2022-12-18T08:16:34;1.00;85.20
49253;DHT22;35103;47.952;-1.502;2022-12-18T08:19:00;1.10;85.20
49253;DHT22;35103;47.952;-1.502;2022-12-18T08:21:30;1.10;85.20
49253;DHT22;35103;47.952;-1.502;2022-12-18T08:23:58;1.20;85.30
49253;DHT22;35103;47.952;-1.502;2022-12-18T08:26:25;1.20;85.50
49253;DHT22;35103;47.952;-1.502;2022-12-18T08:28:52;1.30;85.40
49253;DHT22;35103;47.952;-1.502;2022-12-18T08:31:19;1.30;85.30
49253;DHT22;35103;47.952;-1.502;2022-12-18T08:33:45;1.30;85.30
49253;DHT22;35103;47.952;-1.502;2022-12-18T08:36:11;1.30;85.40
49253;DHT22;35103;47.952;-1.502;2022-12-18T08:38:36;1.30;85.40
49253;DHT22;35103;47.952;-1.502;2022-12-18T08:41:05;1.30;85.30
49253;DHT22;35103;47.952;-1.502;2022-12-18T08:43:31;1.40;85.40
49253;DHT22;35103;47.952;-1.502;2022-12-18T08:45:56;1.40;85.30
49253;DHT22;35103;47.952;-1.502;2022-12-18T08:48:22;1.50;85.30
49253;DHT22;35103;47.952;-1.502;2022-12-18T08:50:58;1.40;85.40
49253;DHT22;35103;47.952;-1.502;2022-12-18T08:53:23;1.50;85.40
49253;DHT22;35103;47.952;-1.502;2022-12-18T08:55:49;1.50;85.60
49253;DHT22;35103;47.952;-1.502;2022-12-18T08:58:15;1.50;85.60
49253;DHT22;35103;47.952;-1.502;2022-12-18T09:00:41;1.60;85.40
49253;DHT22;35103;47.952;-1.502;2022-12-18T09:03:15;1.50;85.50
49253;DHT22;35103;47.952;-1.502;2022-12-18T09:05:41;1.60;85.50
49253;DHT22;35103;47.952;-1.502;2022-12-18T09:08:07;1.60;85.40
49253;DHT22;35103;47.952;-1.502;2022-12-18T09:10:33;1.60;85.30
49253;DHT22;35103;47.952;-1.502;2022-12-18T09:12:58;1.70;85.30
49253;DHT22;35103;47.952;-1.502;2022-12-18T09:15:24;1.70;85.30
49253;DHT22;35103;47.952;-1.502;2022-12-18T09:17:50;1.80;85.20
49253;DHT22;35103;47.952;-1.502;2022-12-18T09:20:16;1.80;85.40
49253;DHT22;35103;47.952;-1.502;2022-12-18T09:22:42;1.80;85.60
49253;DHT22;35103;47.952;-1.502;2022-12-18T09:25:07;1.80;85.60
49253;DHT22;35103;47.952;-1.502;2022-12-18T09:27:34;1.80;85.50
49253;DHT22;35103;47.952;-1.502;2022-12-18T09:29:59;1.80;85.50
49253;DHT22;35103;47.952;-1.502;2022-12-18T09:32:25;1.80;85.50
49253;DHT22;35103;47.952;-1.502;2022-12-18T09:34:50;1.80;85.60
49253;DHT22;35103;47.952;-1.502;2022-12-18T09:37:16;1.80;85.60
49253;DHT22;35103;47.952;-1.502;2022-12-18T09:39:42;1.80;85.60
49253;DHT22;35103;47.952;-1.502;2022-12-18T09:42:17;1.80;85.70
49253;DHT22;35103;47.952;-1.502;2022-12-18T09:44:52;1.80;85.60
49253;DHT22;35103;47.952;-1.502;2022-12-18T09:47:36;1.90;85.50
49253;DHT22;35103;47.952;-1.502;2022-12-18T09:50:22;2.00;85.50
49253;DHT22;35103;47.952;-1.502;2022-12-18T09:52:52;2.00;85.50
49253;DHT22;35103;47.952;-1.502;2022-12-18T09:55:30;2.00;85.40
49253;DHT22;35103;47.952;-1.502;2022-12-18T09:58:06;2.00;85.60
49253;DHT22;35103;47.952;-1.502;2022-12-18T10:00:37;2.00;85.50
49253;DHT22;35103;47.952;-1.502;2022-12-18T10:03:10;2.10;85.40
49253;DHT22;35103;47.952;-1.502;2022-12-18T10:10:48;2.10;85.70
49253;DHT22;35103;47.952;-1.502;2022-12-18T10:13:23;2.10;85.70
49253;DHT22;35103;47.952;-1.502;2022-12-18T10:21:17;2.10;85.70
49253;DHT22;35103;47.952;-1.502;2022-12-18T10:26:22;2.10;85.80
49253;DHT22;35103;47.952;-1.502;2022-12-18T10:28:49;2.20;85.90
49253;DHT22;35103;47.952;-1.502;2022-12-18T10:31:19;2.20;85.90
49253;DHT22;35103;47.952;-1.502;2022-12-18T10:33:45;2.20;85.90
49253;DHT22;35103;47.952;-1.502;2022-12-18T10:36:11;2.20;85.90
49253;DHT22;35103;47.952;-1.502;2022-12-18T10:38:37;2.20;86.00
49253;DHT22;35103;47.952;-1.502;2022-12-18T10:44:41;2.30;85.90
49253;DHT22;35103;47.952;-1.502;2022-12-18T10:47:18;2.30;86.00
49253;DHT22;35103;47.952;-1.502;2022-12-18T10:50:34;2.30;85.90
49253;DHT22;35103;47.952;-1.502;2022-12-18T10:53:04;2.30;85.90
49253;DHT22;35103;47.952;-1.502;2022-12-18T10:55:36;2.30;85.90
49253;DHT22;35103;47.952;-1.502;2022-12-18T10:58:29;2.40;86.00
49253;DHT22;35103;47.952;-1.502;2022-12-18T11:01:14;2.50;86.10
49253;DHT22;35103;47.952;-1.502;2022-12-18T11:06:35;2.60;85.80
49253;DHT22;35103;47.952;-1.502;2022-12-18T11:09:46;2.60;85.80
49253;DHT22;35103;47.952;-1.502;2022-12-18T11:12:31;2.70;85.80
49253;DHT22;35103;47.952;-1.502;2022-12-18T11:15:00;2.60;85.90
49253;DHT22;35103;47.952;-1.502;2022-12-18T11:17:38;2.60;86.20
49253;DHT22;35103;47.952;-1.502;2022-12-18T11:20:34;2.70;86.00
49253;DHT22;35103;47.952;-1.502;2022-12-18T11:23:29;2.70;86.10
49253;DHT22;35103;47.952;-1.502;2022-12-18T11:26:07;2.70;86.20
49253;DHT22;35103;47.952;-1.502;2022-12-18T11:29:16;2.70;86.40
49253;DHT22;35103;47.952;-1.502;2022-12-18T11:31:46;2.70;86.20
49253;DHT22;35103;47.952;-1.502;2022-12-18T11:34:29;2.80;86.40
49253;DHT22;35103;47.952;-1.502;2022-12-18T11:37:04;2.80;86.30
49253;DHT22;35103;47.952;-1.502;2022-12-18T11:40:36;2.80;86.20
49253;DHT22;35103;47.952;-1.502;2022-12-18T11:42:34;2.80;86.20
49253;DHT22;35103;47.952;-1.502;2022-12-18T11:50:44;2.80;86.30
49253;DHT22;35103;47.952;-1.502;2022-12-18T11:53:12;2.80;86.50
49253;DHT22;35103;47.952;-1.502;2022-12-18T12:11:30;2.90;87.60
49253;DHT22;35103;47.952;-1.502;2022-12-18T12:17:03;3.00;87.70
49253;DHT22;35103;47.952;-1.502;2022-12-18T12:20:02;3.10;87.60
49253;DHT22;35103;47.952;-1.502;2022-12-18T12:39:05;3.50;87.60
49253;DHT22;35103;47.952;-1.502;2022-12-18T12:41:33;3.50;87.50
49253;DHT22;35103;47.952;-1.502;2022-12-18T12:44:03;3.50;87.50
49253;DHT22;35103;47.952;-1.502;2022-12-18T12:46:34;3.60;87.50
49253;DHT22;35103;47.952;-1.502;2022-12-18T12:49:15;3.60;87.50
49253;DHT22;35103;47.952;-1.502;2022-12-18T12:51:45;3.60;87.60
49253;DHT22;35103;47.952;-1.502;2022-12-18T12:54:21;3.70;87.70
49253;DHT22;35103;47.952;-1.502;2022-12-18T12:57:02;3.70;87.70
49253;DHT22;35103;47.952;-1.502;2022-12-18T13:02:51;3.80;87.70
49253;DHT22;35103;47.952;-1.502;2022-12-18T13:05:34;3.90;87.70
49253;DHT22;35103;47.952;-1.502;2022-12-18T13:08:06;4.00;87.70
49253;DHT22;35103;47.952;-1.502;2022-12-18T13:15:42;4.20;87.90
49253;DHT22;35103;47.952;-1.502;2022-12-18T13:23:36;4.60;88.30
49253;DHT22;35103;47.952;-1.502;2022-12-18T13:30:59;4.90;88.00
49253;DHT22;35103;47.952;-1.502;2022-12-18T13:33:34;4.90;87.90
49253;DHT22;35103;47.952;-1.502;2022-12-18T13:36:15;5.00;87.90
49253;DHT22;35103;47.952;-1.502;2022-12-18T13:38:43;5.10;87.70
49253;DHT22;35103;47.952;-1.502;2022-12-18T13:41:22;5.20;87.70
49253;DHT22;35103;47.952;-1.502;2022-12-18T13:46:55;5.30;87.30
49253;DHT22;35103;47.952;-1.502;2022-12-18T13:49:40;5.40;87.20
49253;DHT22;35103;47.952;-1.502;2022-12-18T13:52:20;5.50;87.20
49253;DHT22;35103;47.952;-1.502;2022-12-18T13:54:55;5.50;87.10
49253;DHT22;35103;47.952;-1.502;2022-12-18T13:57:32;5.50;87.10
49253;DHT22;35103;47.952;-1.502;2022-12-18T14:00:14;5.50;87.10
49253;DHT22;35103;47.952;-1.502;2022-12-18T14:02:45;5.50;87.00
49253;DHT22;35103;47.952;-1.502;2022-12-18T14:05:29;5.50;86.90
49253;DHT22;35103;47.952;-1.502;2022-12-18T14:07:58;5.50;86.90
49253;DHT22;35103;47.952;-1.502;2022-12-18T14:10:25;5.60;86.80
49253;DHT22;35103;47.952;-1.502;2022-12-18T14:12:53;5.60;86.90
49253;DHT22;35103;47.952;-1.502;2022-12-18T14:18:01;5.50;87.00
49253;DHT22;35103;47.952;-1.502;2022-12-18T14:20:30;5.60;87.10
49253;DHT22;35103;47.952;-1.502;2022-12-18T14:22:57;5.50;87.00
49253;DHT22;35103;47.952;-1.502;2022-12-18T14:25:25;5.60;87.10
49253;DHT22;35103;47.952;-1.502;2022-12-18T14:33:14;5.60;87.40
49253;DHT22;35103;47.952;-1.502;2022-12-18T14:35:41;5.60;87.60
49253;DHT22;35103;47.952;-1.502;2022-12-18T14:40:43;5.60;87.70
49253;DHT22;35103;47.952;-1.502;2022-12-18T14:43:18;5.70;87.70
49253;DHT22;35103;47.952;-1.502;2022-12-18T14:45:44;5.70;87.70
49253;DHT22;35103;47.952;-1.502;2022-12-18T14:51:12;5.80;87.70
49253;DHT22;35103;47.952;-1.502;2022-12-18T14:53:46;5.70;87.80
49253;DHT22;35103;47.952;-1.502;2022-12-18T14:56:23;5.80;87.80
49253;DHT22;35103;47.952;-1.502;2022-12-18T14:58:53;5.80;87.70
49253;DHT22;35103;47.952;-1.502;2022-12-18T15:01:21;5.90;87.60
49253;DHT22;35103;47.952;-1.502;2022-12-18T15:03:47;5.90;87.60
49253;DHT22;35103;47.952;-1.502;2022-12-18T15:06:21;5.90;87.70
49253;DHT22;35103;47.952;-1.502;2022-12-18T15:08:49;6.00;87.70
49253;DHT22;35103;47.952;-1.502;2022-12-18T15:11:35;6.00;87.70
49253;DHT22;35103;47.952;-1.502;2022-12-18T15:14:31;6.00;87.70
49253;DHT22;35103;47.952;-1.502;2022-12-18T15:16:58;6.10;87.40
49253;DHT22;35103;47.952;-1.502;2022-12-18T15:19:40;6.10;87.30
49253;DHT22;35103;47.952;-1.502;2022-12-18T15:22:29;6.20;87.30
49253;DHT22;35103;47.952;-1.502;2022-12-18T15:24:56;6.20;87.10
49253;DHT22;35103;47.952;-1.502;2022-12-18T15:27:34;6.20;87.30
49253;DHT22;35103;47.952;-1.502;2022-12-18T15:32:32;6.30;87.30
49253;DHT22;35103;47.952;-1.502;2022-12-18T15:35:14;6.30;87.30
49253;DHT22;35103;47.952;-1.502;2022-12-18T15:37:40;6.30;87.10
49253;DHT22;35103;47.952;-1.502;2022-12-18T15:40:07;6.30;87.00
49253;DHT22;35103;47.952;-1.502;2022-12-18T15:42:34;6.30;87.10
49253;DHT22;35103;47.952;-1.502;2022-12-18T15:44:59;6.40;87.20
49253;DHT22;35103;47.952;-1.502;2022-12-18T15:47:25;6.30;87.20
49253;DHT22;35103;47.952;-1.502;2022-12-18T15:49:50;6.40;87.10
49253;DHT22;35103;47.952;-1.502;2022-12-18T15:52:16;6.40;87.10
49253;DHT22;35103;47.952;-1.502;2022-12-18T15:54:41;6.40;87.10
49253;DHT22;35103;47.952;-1.502;2022-12-18T15:57:11;6.40;87.10
49253;DHT22;35103;47.952;-1.502;2022-12-18T15:59:36;6.40;87.10
49253;DHT22;35103;47.952;-1.502;2022-12-18T16:02:07;6.40;87.10
49253;DHT22;35103;47.952;-1.502;2022-12-18T16:04:40;6.50;87.10
49253;DHT22;35103;47.952;-1.502;2022-12-18T16:07:05;6.50;87.10
49253;DHT22;35103;47.952;-1.502;2022-12-18T16:09:32;6.50;87.10
49253;DHT22;35103;47.952;-1.502;2022-12-18T16:11:58;6.50;87.30
49253;DHT22;35103;47.952;-1.502;2022-12-18T16:14:29;6.50;87.30
49253;DHT22;35103;47.952;-1.502;2022-12-18T16:17:08;6.50;87.30
49253;DHT22;35103;47.952;-1.502;2022-12-18T16:19:34;6.60;87.30
49253;DHT22;35103;47.952;-1.502;2022-12-18T16:21:59;6.60;87.20
49253;DHT22;35103;47.952;-1.502;2022-12-18T16:24:28;6.60;87.40
49253;DHT22;35103;47.952;-1.502;2022-12-18T16:26:55;6.60;87.50
49253;DHT22;35103;47.952;-1.502;2022-12-18T16:47:51;6.80;87.80
49253;DHT22;35103;47.952;-1.502;2022-12-18T16:50:16;6.80;87.80
49253;DHT22;35103;47.952;-1.502;2022-12-18T16:52:42;6.80;87.80
49253;DHT22;35103;47.952;-1.502;2022-12-18T16:55:08;6.80;87.90
49253;DHT22;35103;47.952;-1.502;2022-12-18T16:57:34;6.80;88.00
49253;DHT22;35103;47.952;-1.502;2022-12-18T16:59:59;6.80;88.00
49253;DHT22;35103;47.952;-1.502;2022-12-18T17:02:26;6.80;88.00
49253;DHT22;35103;47.952;-1.502;2022-12-18T17:04:53;6.90;87.90
49253;DHT22;35103;47.952;-1.502;2022-12-18T17:07:20;6.90;88.00
49253;DHT22;35103;47.952;-1.502;2022-12-18T17:09:45;6.90;87.90
49253;DHT22;35103;47.952;-1.502;2022-12-18T17:12:11;7.00;87.90
49253;DHT22;35103;47.952;-1.502;2022-12-18T17:14:41;7.00;87.80
49253;DHT22;35103;47.952;-1.502;2022-12-18T17:17:06;7.00;87.70
49253;DHT22;35103;47.952;-1.502;2022-12-18T17:19:32;7.10;87.70
49253;DHT22;35103;47.952;-1.502;2022-12-18T17:21:58;7.10;87.70
49253;DHT22;35103;47.952;-1.502;2022-12-18T17:24:24;7.10;87.80
49253;DHT22;35103;47.952;-1.502;2022-12-18T17:26:49;7.10;87.80
49253;DHT22;35103;47.952;-1.502;2022-12-18T17:29:17;7.20;87.80
49253;DHT22;35103;47.952;-1.502;2022-12-18T17:31:43;7.20;87.80
49253;DHT22;35103;47.952;-1.502;2022-12-18T17:34:10;7.30;87.70
49253;DHT22;35103;47.952;-1.502;2022-12-18T17:36:36;7.30;87.80
49253;DHT22;35103;47.952;-1.502;2022-12-18T17:39:03;7.30;87.80
49253;DHT22;35103;47.952;-1.502;2022-12-18T17:41:30;7.30;87.70